sensor_id;sensor_type;location;lat;lon;timestamp;pressure;altitude;pressure_sealevel;temperature;humidity
43681;BME280;29281;50.356;30.894;2022-10-16T00:00:39;101363.67;;;6.26;80.06
43681;BME280;29281;50.356;30.894;2022-10-16T00:01:39;101362.77;;;6.27;79.79
43681;BME280;29281;50.356;30.894;2022-10-16T00:02:42;101362.77;;;6.27;79.63
43681;BME280;29281;50.356;30.894;2022-10-16T00:03:45;101354.98;;;6.24;79.80
43681;BME280;29281;50.356;30.894;2022-10-16T00:04:51;101363.98;;;6.17;80.25
43681;BME280;29281;50.356;30.894;2022-10-16T00:05:54;101358.95;;;6.10;80.33
43681;BME280;29281;50.356;30.894;2022-10-16T00:06:59;101359.13;;;6.04;81.13
43681;BME280;29281;50.356;30.894;2022-10-16T00:08:03;101354.08;;;5.96;81.66
43681;BME280;29281;50.356;30.894;2022-10-16T00:09:08;101359.60;;;5.88;81.72
43681;BME280;29281;50.356;30.894;2022-10-16T00:10:12;101356.06;;;5.88;81.77
43681;BME280;29281;50.356;30.894;2022-10-16T00:11:23;101355.28;;;5.84;82.36
43681;BME280;29281;50.356;30.894;2022-10-16T00:12:26;101357.10;;;5.82;82.59
43681;BME280;29281;50.356;30.894;2022-10-16T00:13:30;101349.92;;;5.89;81.80
43681;BME280;29281;50.356;30.894;2022-10-16T00:14:33;101359.55;;;5.90;81.63
43681;BME280;29281;50.356;30.894;2022-10-16T00:15:37;101355.15;;;5.90;81.65
43681;BME280;29281;50.356;30.894;2022-10-16T00:16:41;101357.58;;;5.96;81.56
43681;BME280;29281;50.356;30.894;2022-10-16T00:17:45;101352.70;;;5.83;82.44
43681;BME280;29281;50.356;30.894;2022-10-16T00:18:49;101352.12;;;5.73;83.18
43681;BME280;29281;50.356;30.894;2022-10-16T00:19:53;101352.12;;;5.73;83.34
43681;BME280;29281;50.356;30.894;2022-10-16T00:21:01;101352.03;;;5.76;82.91
43681;BME280;29281;50.356;30.894;2022-10-16T00:22:04;101351.05;;;5.80;82.42
43681;BME280;29281;50.356;30.894;2022-10-16T00:23:07;101356.16;;;5.85;82.07
43681;BME280;29281;50.356;30.894;2022-10-16T00:24:10;101360.60;;;5.83;82.79
43681;BME280;29281;50.356;30.894;2022-10-16T00:25:13;101358.09;;;5.80;82.61
43681;BME280;29281;50.356;30.894;2022-10-16T00:26:17;101356.44;;;5.76;83.49
43681;BME280;29281;50.356;30.894;2022-10-16T00:27:22;101354.80;;;5.72;84.17
43681;BME280;29281;50.356;30.894;2022-10-16T00:28:26;101356.52;;;5.73;84.88
43681;BME280;29281;50.356;30.894;2022-10-16T00:29:31;101355.74;;;5.69;84.79
43681;BME280;29281;50.356;30.894;2022-10-16T00:30:37;101360.23;;;5.65;84.71
43681;BME280;29281;50.356;30.894;2022-10-16T00:31:43;101354.30;;;5.59;84.94
43681;BME280;29281;50.356;30.894;2022-10-16T00:32:52;101362.03;;;5.65;85.24
43681;BME280;29281;50.356;30.894;2022-10-16T00:33:52;101365.50;;;5.65;85.34
43681;BME280;29281;50.356;30.894;2022-10-16T00:34:58;101363.65;;;5.69;85.16
43681;BME280;29281;50.356;30.894;2022-10-16T00:36:01;101363.69;;;5.68;85.35
43681;BME280;29281;50.356;30.894;2022-10-16T00:37:05;101364.34;;;5.76;84.56
43681;BME280;29281;50.356;30.894;2022-10-16T00:38:07;101373.24;;;5.72;85.14
43681;BME280;29281;50.356;30.894;2022-10-16T00:39:11;101370.56;;;5.73;85.18
43681;BME280;29281;50.356;30.894;2022-10-16T00:40:15;101371.52;;;5.71;85.55
43681;BME280;29281;50.356;30.894;2022-10-16T00:41:17;101369.87;;;5.66;85.89
43681;BME280;29281;50.356;30.894;2022-10-16T00:42:20;101364.59;;;5.66;86.33
43681;BME280;29281;50.356;30.894;2022-10-16T00:43:34;101368.96;;;5.68;85.71
43681;BME280;29281;50.356;30.894;2022-10-16T00:44:46;101367.30;;;5.65;85.57
43681;BME280;29281;50.356;30.894;2022-10-16T00:45:45;101371.52;;;5.71;85.14
43681;BME280;29281;50.356;30.894;2022-10-16T00:46:49;101363.65;;;5.69;85.35
43681;BME280;29281;50.356;30.894;2022-10-16T00:47:53;101372.46;;;5.68;85.44
43681;BME280;29281;50.356;30.894;2022-10-16T00:49:10;101376.91;;;5.66;85.31
43681;BME280;29281;50.356;30.894;2022-10-16T00:50:16;101376.12;;;5.64;85.61
43681;BME280;29281;50.356;30.894;2022-10-16T00:51:21;101376.98;;;5.64;85.24
43681;BME280;29281;50.356;30.894;2022-10-16T00:52:25;101375.30;;;5.62;85.56
43681;BME280;29281;50.356;30.894;2022-10-16T00:53:29;101370.89;;;5.62;85.30
43681;BME280;29281;50.356;30.894;2022-10-16T00:54:33;101379.03;;;5.53;85.78
43681;BME280;29281;50.356;30.894;2022-10-16T00:55:36;101374.52;;;5.58;85.29
43681;BME280;29281;50.356;30.894;2022-10-16T00:56:42;101378.09;;;5.56;85.42
43681;BME280;29281;50.356;30.894;2022-10-16T00:57:46;101378.95;;;5.56;86.07
43681;BME280;29281;50.356;30.894;2022-10-16T00:58:50;101373.69;;;5.56;85.77
43681;BME280;29281;50.356;30.894;2022-10-16T00:59:54;101378.13;;;5.54;85.81
43681;BME280;29281;50.356;30.894;2022-10-16T01:00:59;101380.06;;;5.49;86.29
43681;BME280;29281;50.356;30.894;2022-10-16T01:02:03;101372.27;;;5.45;86.17
43681;BME280;29281;50.356;30.894;2022-10-16T01:03:23;101375.54;;;5.53;85.85
43681;BME280;29281;50.356;30.894;2022-10-16T01:04:50;101370.23;;;5.54;86.00
43681;BME280;29281;50.356;30.894;2022-10-16T01:05:42;101376.24;;;5.59;85.57
43681;BME280;29281;50.356;30.894;2022-10-16T01:07:56;101379.62;;;5.64;84.69
43681;BME280;29281;50.356;30.894;2022-10-16T01:09:07;101386.50;;;5.69;84.42
43681;BME280;29281;50.356;30.894;2022-10-16T01:10:30;101376.83;;;5.69;84.21
43681;BME280;29281;50.356;30.894;2022-10-16T01:11:44;101375.92;;;5.70;84.34
43681;BME280;29281;50.356;30.894;2022-10-16T01:12:49;101381.20;;;5.70;84.07
43681;BME280;29281;50.356;30.894;2022-10-16T01:13:55;101381.20;;;5.70;84.13
43681;BME280;29281;50.356;30.894;2022-10-16T01:15:06;101386.46;;;5.70;83.93
43681;BME280;29281;50.356;30.894;2022-10-16T01:16:13;101380.37;;;5.68;84.01
43681;BME280;29281;50.356;30.894;2022-10-16T01:17:18;101390.24;;;5.61;84.88
43681;BME280;29281;50.356;30.894;2022-10-16T01:18:25;101380.06;;;5.49;84.84
43681;BME280;29281;50.356;30.894;2022-10-16T01:19:36;101388.87;;;5.48;85.03
43681;BME280;29281;50.356;30.894;2022-10-16T01:20:44;101378.17;;;5.53;85.05
43681;BME280;29281;50.356;30.894;2022-10-16T01:21:50;101377.46;;;5.48;85.02
43681;BME280;29281;50.356;30.894;2022-10-16T01:24:31;101384.23;;;5.56;84.47
43681;BME280;29281;50.356;30.894;2022-10-16T01:25:36;101381.87;;;5.47;85.25
43681;BME280;29281;50.356;30.894;2022-10-16T01:26:44;101382.85;;;5.43;85.77
43681;BME280;29281;50.356;30.894;2022-10-16T01:27:45;101392.41;;;5.47;85.51
43681;BME280;29281;50.356;30.894;2022-10-16T01:28:55;101381.63;;;5.55;84.93
43681;BME280;29281;50.356;30.894;2022-10-16T01:30:00;101389.58;;;5.53;85.27
43681;BME280;29281;50.356;30.894;2022-10-16T01:31:05;101387.14;;;5.47;85.08
43681;BME280;29281;50.356;30.894;2022-10-16T01:32:17;101388.75;;;5.51;84.64
43681;BME280;29281;50.356;30.894;2022-10-16T01:33:21;101393.12;;;5.52;84.41
43681;BME280;29281;50.356;30.894;2022-10-16T01:34:42;101387.14;;;5.47;85.10
43681;BME280;29281;50.356;30.894;2022-10-16T01:35:52;101391.39;;;5.51;84.47
43681;BME280;29281;50.356;30.894;2022-10-16T01:36:56;101393.27;;;5.48;84.87
43681;BME280;29281;50.356;30.894;2022-10-16T01:38:04;101393.98;;;5.53;84.47
43681;BME280;29281;50.356;30.894;2022-10-16T01:39:08;101391.34;;;5.53;84.02
43681;BME280;29281;50.356;30.894;2022-10-16T01:40:12;101398.42;;;5.51;84.13
43681;BME280;29281;50.356;30.894;2022-10-16T01:41:21;101394.92;;;5.50;84.29
43681;BME280;29281;50.356;30.894;2022-10-16T01:42:28;101405.62;;;5.46;84.39
43681;BME280;29281;50.356;30.894;2022-10-16T01:43:35;101403.77;;;5.49;84.48
43681;BME280;29281;50.356;30.894;2022-10-16T01:44:40;101407.50;;;5.41;85.06
43681;BME280;29281;50.356;30.894;2022-10-16T01:45:44;101400.47;;;5.41;85.08
43681;BME280;29281;50.356;30.894;2022-10-16T01:46:51;101402.50;;;5.32;85.08
43681;BME280;29281;50.356;30.894;2022-10-16T01:47:56;101401.63;;;5.31;85.23
43681;BME280;29281;50.356;30.894;2022-10-16T01:49:01;101407.77;;;5.32;85.12
43681;BME280;29281;50.356;30.894;2022-10-16T01:50:05;101407.73;;;5.33;84.72
43681;BME280;29281;50.356;30.894;2022-10-16T01:51:10;101410.44;;;5.30;85.23
43681;BME280;29281;50.356;30.894;2022-10-16T01:52:16;101399.15;;;5.25;84.88
43681;BME280;29281;50.356;30.894;2022-10-16T01:53:19;101401.83;;;5.23;84.74
43681;BME280;29281;50.356;30.894;2022-10-16T01:54:23;101409.87;;;5.19;84.75
43681;BME280;29281;50.356;30.894;2022-10-16T01:55:32;101411.67;;;5.17;84.96
43681;BME280;29281;50.356;30.894;2022-10-16T01:56:38;101404.79;;;5.11;85.42
43681;BME280;29281;50.356;30.894;2022-10-16T01:57:42;101408.32;;;5.10;85.59
43681;BME280;29281;50.356;30.894;2022-10-16T01:58:50;101405.66;;;5.12;84.98
43681;BME280;29281;50.356;30.894;2022-10-16T01:59:54;101410.05;;;5.11;85.76
43681;BME280;29281;50.356;30.894;2022-10-16T02:00:59;101409.33;;;5.05;85.96
43681;BME280;29281;50.356;30.894;2022-10-16T02:02:06;101407.67;;;5.02;86.04
43681;BME280;29281;50.356;30.894;2022-10-16T02:03:12;101404.86;;;5.08;86.19
43681;BME280;29281;50.356;30.894;2022-10-16T02:04:19;101409.23;;;5.09;85.87
43681;BME280;29281;50.356;30.894;2022-10-16T02:05:27;101417.13;;;5.09;85.93
43681;BME280;29281;50.356;30.894;2022-10-16T02:06:32;101410.27;;;5.04;85.77
43681;BME280;29281;50.356;30.894;2022-10-16T02:07:36;101412.83;;;5.05;85.78
43681;BME280;29281;50.356;30.894;2022-10-16T02:08:39;101414.60;;;5.05;85.89
43681;BME280;29281;50.356;30.894;2022-10-16T02:09:44;101413.73;;;5.04;85.54
43681;BME280;29281;50.356;30.894;2022-10-16T02:10:48;101415.68;;;4.98;85.87
43681;BME280;29281;50.356;30.894;2022-10-16T02:11:54;101414.81;;;4.97;85.62
43681;BME280;29281;50.356;30.894;2022-10-16T02:13:04;101414.78;;;4.99;85.61
43681;BME280;29281;50.356;30.894;2022-10-16T02:14:05;101413.84;;;5.01;85.45
43681;BME280;29281;50.356;30.894;2022-10-16T02:15:11;101415.57;;;5.02;85.81
43681;BME280;29281;50.356;30.894;2022-10-16T02:16:15;101413.05;;;4.98;85.98
43681;BME280;29281;50.356;30.894;2022-10-16T02:17:19;101417.38;;;5.00;86.39
43681;BME280;29281;50.356;30.894;2022-10-16T02:18:24;101418.31;;;4.98;86.13
43681;BME280;29281;50.356;30.894;2022-10-16T02:19:29;101417.41;;;4.99;86.02
43681;BME280;29281;50.356;30.894;2022-10-16T02:20:36;101418.31;;;4.98;85.97
43681;BME280;29281;50.356;30.894;2022-10-16T02:22:48;101419.11;;;5.01;85.04
43681;BME280;29281;50.356;30.894;2022-10-16T02:24:03;101424.45;;;4.98;85.21
43681;BME280;29281;50.356;30.894;2022-10-16T02:25:26;101425.31;;;4.99;84.98
43681;BME280;29281;50.356;30.894;2022-10-16T02:26:40;101421.98;;;4.90;85.21
43681;BME280;29281;50.356;30.894;2022-10-16T02:29:05;101430.89;;;4.86;85.08
43681;BME280;29281;50.356;30.894;2022-10-16T02:30:19;101423.83;;;4.88;84.90
43681;BME280;29281;50.356;30.894;2022-10-16T02:31:25;101428.98;;;4.91;84.62
43681;BME280;29281;50.356;30.894;2022-10-16T02:32:30;101427.42;;;4.84;85.23
43681;BME280;29281;50.356;30.894;2022-10-16T02:33:34;101433.63;;;4.82;85.39
43681;BME280;29281;50.356;30.894;2022-10-16T02:34:43;101426.59;;;4.82;85.16
43681;BME280;29281;50.356;30.894;2022-10-16T02:35:46;101431.03;;;4.80;84.74
43681;BME280;29281;50.356;30.894;2022-10-16T02:36:50;101427.73;;;4.72;85.72
43681;BME280;29281;50.356;30.894;2022-10-16T02:37:54;101429.66;;;4.64;85.73
43681;BME280;29281;50.356;30.894;2022-10-16T02:38:57;101430.40;;;4.71;85.72
43681;BME280;29281;50.356;30.894;2022-10-16T02:40:04;101431.16;;;4.74;85.40
43681;BME280;29281;50.356;30.894;2022-10-16T02:41:08;101426.77;;;4.75;85.50
43681;BME280;29281;50.356;30.894;2022-10-16T02:42:13;101436.49;;;4.73;85.31
43681;BME280;29281;50.356;30.894;2022-10-16T02:43:17;101432.93;;;4.74;85.59
43681;BME280;29281;50.356;30.894;2022-10-16T02:44:20;101430.36;;;4.72;85.16
43681;BME280;29281;50.356;30.894;2022-10-16T02:45:24;101434.77;;;4.72;85.10
43681;BME280;29281;50.356;30.894;2022-10-16T02:46:28;101433.00;;;4.72;84.80
43681;BME280;29281;50.356;30.894;2022-10-16T02:47:33;101428.87;;;4.60;85.24
43681;BME280;29281;50.356;30.894;2022-10-16T02:48:36;101432.33;;;4.63;85.40
43681;BME280;29281;50.356;30.894;2022-10-16T02:49:39;101431.53;;;4.59;85.62
43681;BME280;29281;50.356;30.894;2022-10-16T02:50:42;101429.73;;;4.61;86.00
43681;BME280;29281;50.356;30.894;2022-10-16T02:51:47;101428.73;;;4.67;86.12
43681;BME280;29281;50.356;30.894;2022-10-16T02:52:50;101430.53;;;4.65;86.04
43681;BME280;29281;50.356;30.894;2022-10-16T02:53:54;101439.30;;;4.65;85.76
43681;BME280;29281;50.356;30.894;2022-10-16T02:54:56;101432.30;;;4.64;85.65
43681;BME280;29281;50.356;30.894;2022-10-16T02:56:03;101440.13;;;4.67;85.34
43681;BME280;29281;50.356;30.894;2022-10-16T02:57:06;101439.19;;;4.70;84.84
43681;BME280;29281;50.356;30.894;2022-10-16T02:58:09;101447.88;;;4.73;84.34
43681;BME280;29281;50.356;30.894;2022-10-16T02:59:12;101438.26;;;4.72;84.02
43681;BME280;29281;50.356;30.894;2022-10-16T03:00:18;101440.16;;;4.66;84.30
43681;BME280;29281;50.356;30.894;2022-10-16T03:01:22;101443.82;;;4.58;85.37
43681;BME280;29281;50.356;30.894;2022-10-16T03:02:26;101448.31;;;4.55;85.43
43681;BME280;29281;50.356;30.894;2022-10-16T03:03:30;101441.25;;;4.57;85.60
43681;BME280;29281;50.356;30.894;2022-10-16T03:04:34;101443.91;;;4.55;85.35
43681;BME280;29281;50.356;30.894;2022-10-16T03:05:37;101442.92;;;4.59;84.86
43681;BME280;29281;50.356;30.894;2022-10-16T03:06:39;101448.09;;;4.64;84.56
43681;BME280;29281;50.356;30.894;2022-10-16T03:07:41;101443.78;;;4.60;84.53
43681;BME280;29281;50.356;30.894;2022-10-16T03:08:45;101449.08;;;4.58;84.72
43681;BME280;29281;50.356;30.894;2022-10-16T03:09:48;101450.91;;;4.56;84.63
43681;BME280;29281;50.356;30.894;2022-10-16T03:10:52;101447.48;;;4.53;84.78
43681;BME280;29281;50.356;30.894;2022-10-16T03:11:55;101446.71;;;4.48;84.78
43681;BME280;29281;50.356;30.894;2022-10-16T03:12:58;101451.04;;;4.50;84.66
43681;BME280;29281;50.356;30.894;2022-10-16T03:14:02;101451.97;;;4.48;84.75
43681;BME280;29281;50.356;30.894;2022-10-16T03:15:05;101444.17;;;4.43;85.29
43681;BME280;29281;50.356;30.894;2022-10-16T03:16:10;101452.03;;;4.45;84.88
43681;BME280;29281;50.356;30.894;2022-10-16T03:17:13;101456.40;;;4.46;84.61
43681;BME280;29281;50.356;30.894;2022-10-16T03:18:19;101452.90;;;4.45;83.94
43681;BME280;29281;50.356;30.894;2022-10-16T03:19:22;101460.95;;;4.39;84.61
43681;BME280;29281;50.356;30.894;2022-10-16T03:20:27;101453.09;;;4.38;84.49
43681;BME280;29281;50.356;30.894;2022-10-16T03:21:30;101461.84;;;4.38;83.92
43681;BME280;29281;50.356;30.894;2022-10-16T03:22:33;101459.86;;;4.48;83.60
43681;BME280;29281;50.356;30.894;2022-10-16T03:23:38;101459.86;;;4.48;83.10
43681;BME280;29281;50.356;30.894;2022-10-16T03:24:41;101466.14;;;4.42;83.43
43681;BME280;29281;50.356;30.894;2022-10-16T03:25:45;101459.25;;;4.37;83.76
43681;BME280;29281;50.356;30.894;2022-10-16T03:26:50;101466.33;;;4.33;84.03
43681;BME280;29281;50.356;30.894;2022-10-16T03:27:53;101453.21;;;4.32;83.87
43681;BME280;29281;50.356;30.894;2022-10-16T03:28:55;101458.62;;;4.26;84.35
43681;BME280;29281;50.356;30.894;2022-10-16T03:30:02;101459.55;;;4.23;84.84
43681;BME280;29281;50.356;30.894;2022-10-16T03:31:04;101462.16;;;4.24;84.91
43681;BME280;29281;50.356;30.894;2022-10-16T03:32:08;101459.61;;;4.20;84.97
43681;BME280;29281;50.356;30.894;2022-10-16T03:33:11;101471.84;;;4.22;85.34
43681;BME280;29281;50.356;30.894;2022-10-16T03:34:14;101470.05;;;4.24;84.81
43681;BME280;29281;50.356;30.894;2022-10-16T03:35:20;101470.05;;;4.24;84.69
43681;BME280;29281;50.356;30.894;2022-10-16T03:36:23;101463.98;;;4.21;85.13
43681;BME280;29281;50.356;30.894;2022-10-16T03:37:27;101465.68;;;4.23;84.77
43681;BME280;29281;50.356;30.894;2022-10-16T03:38:33;101465.65;;;4.25;84.24
43681;BME280;29281;50.356;30.894;2022-10-16T03:39:37;101469.30;;;4.18;84.50
43681;BME280;29281;50.356;30.894;2022-10-16T03:40:41;101470.07;;;4.23;84.55
43681;BME280;29281;50.356;30.894;2022-10-16T03:41:44;101464.94;;;4.17;84.90
43681;BME280;29281;50.356;30.894;2022-10-16T03:42:50;101470.19;;;4.17;84.73
43681;BME280;29281;50.356;30.894;2022-10-16T03:43:53;101469.45;;;4.12;85.05
43681;BME280;29281;50.356;30.894;2022-10-16T03:44:56;101467.59;;;4.15;84.98
43681;BME280;29281;50.356;30.894;2022-10-16T03:46:00;101472.82;;;4.17;85.31
43681;BME280;29281;50.356;30.894;2022-10-16T03:47:03;101470.19;;;4.17;85.13
43681;BME280;29281;50.356;30.894;2022-10-16T03:48:07;101471.84;;;4.22;85.24
43681;BME280;29281;50.356;30.894;2022-10-16T03:49:12;101474.37;;;4.27;84.78
43681;BME280;29281;50.356;30.894;2022-10-16T03:50:15;101470.87;;;4.27;84.66
43681;BME280;29281;50.356;30.894;2022-10-16T03:51:18;101468.25;;;4.27;84.56
43681;BME280;29281;50.356;30.894;2022-10-16T03:52:22;101469.02;;;4.30;84.35
43681;BME280;29281;50.356;30.894;2022-10-16T03:53:25;101472.52;;;4.31;84.30
43681;BME280;29281;50.356;30.894;2022-10-16T03:54:32;101468.28;;;4.25;84.08
43681;BME280;29281;50.356;30.894;2022-10-16T03:55:35;101471.68;;;4.29;83.88
43681;BME280;29281;50.356;30.894;2022-10-16T03:56:39;101481.40;;;4.27;84.12
43681;BME280;29281;50.356;30.894;2022-10-16T03:57:43;101470.94;;;4.23;84.20
43681;BME280;29281;50.356;30.894;2022-10-16T03:58:48;101471.68;;;4.29;83.51
43681;BME280;29281;50.356;30.894;2022-10-16T03:59:52;101472.70;;;4.23;83.32
43681;BME280;29281;50.356;30.894;2022-10-16T04:00:55;101475.42;;;4.18;84.17
43681;BME280;29281;50.356;30.894;2022-10-16T04:01:58;101470.19;;;4.17;84.30
43681;BME280;29281;50.356;30.894;2022-10-16T04:03:01;101472.79;;;4.18;84.46
43681;BME280;29281;50.356;30.894;2022-10-16T04:04:04;101468.45;;;4.16;84.45
43681;BME280;29281;50.356;30.894;2022-10-16T04:05:09;101475.36;;;4.21;83.63
43681;BME280;29281;50.356;30.894;2022-10-16T04:06:13;101478.92;;;4.19;83.40
43681;BME280;29281;50.356;30.894;2022-10-16T04:07:18;101473.69;;;4.17;83.85
43681;BME280;29281;50.356;30.894;2022-10-16T04:08:20;101473.84;;;4.11;84.38
43681;BME280;29281;50.356;30.894;2022-10-16T04:09:24;101483.39;;;4.14;84.19
43681;BME280;29281;50.356;30.894;2022-10-16T04:10:27;101475.51;;;4.14;84.39
43681;BME280;29281;50.356;30.894;2022-10-16T04:11:34;101477.27;;;4.13;84.17
43681;BME280;29281;50.356;30.894;2022-10-16T04:12:40;101475.51;;;4.14;83.84
43681;BME280;29281;50.356;30.894;2022-10-16T04:13:44;101475.51;;;4.14;83.86
43681;BME280;29281;50.356;30.894;2022-10-16T04:14:48;101472.79;;;4.18;83.09
43681;BME280;29281;50.356;30.894;2022-10-16T04:15:50;101475.45;;;4.17;83.16
43681;BME280;29281;50.356;30.894;2022-10-16T04:16:53;101472.97;;;4.11;83.77
43681;BME280;29281;50.356;30.894;2022-10-16T04:17:56;101467.80;;;4.06;84.30
43681;BME280;29281;50.356;30.894;2022-10-16T04:19:00;101468.52;;;4.13;83.42
43681;BME280;29281;50.356;30.894;2022-10-16T04:20:06;101472.73;;;4.21;82.85
43681;BME280;29281;50.356;30.894;2022-10-16T04:21:12;101472.70;;;4.23;82.89
43681;BME280;29281;50.356;30.894;2022-10-16T04:22:15;101468.28;;;4.25;82.43
43681;BME280;29281;50.356;30.894;2022-10-16T04:23:19;101468.48;;;4.14;82.70
43681;BME280;29281;50.356;30.894;2022-10-16T04:24:24;101463.44;;;4.05;83.75
43681;BME280;29281;50.356;30.894;2022-10-16T04:25:28;101473.14;;;4.02;84.52
43681;BME280;29281;50.356;30.894;2022-10-16T04:26:32;101475.74;;;4.03;84.75
43681;BME280;29281;50.356;30.894;2022-10-16T04:27:35;101467.02;;;4.01;84.98
43681;BME280;29281;50.356;30.894;2022-10-16T04:28:40;101473.98;;;4.04;84.30
43681;BME280;29281;50.356;30.894;2022-10-16T04:29:43;101471.35;;;4.04;84.50
43681;BME280;29281;50.356;30.894;2022-10-16T04:30:47;101471.23;;;4.10;84.32
43681;BME280;29281;50.356;30.894;2022-10-16T04:31:51;101477.33;;;4.12;84.29
43681;BME280;29281;50.356;30.894;2022-10-16T04:32:54;101471.05;;;4.17;83.94
43681;BME280;29281;50.356;30.894;2022-10-16T04:33:57;101477.23;;;4.15;84.08
43681;BME280;29281;50.356;30.894;2022-10-16T04:35:03;101472.79;;;4.18;83.34
43681;BME280;29281;50.356;30.894;2022-10-16T04:36:08;101470.31;;;4.12;83.77
43681;BME280;29281;50.356;30.894;2022-10-16T04:37:12;101475.69;;;4.06;83.61
43681;BME280;29281;50.356;30.894;2022-10-16T04:38:14;101480.91;;;4.08;84.31
43681;BME280;29281;50.356;30.894;2022-10-16T04:39:17;101484.27;;;4.14;84.27
43681;BME280;29281;50.356;30.894;2022-10-16T04:40:22;101478.97;;;4.16;83.88
43681;BME280;29281;50.356;30.894;2022-10-16T04:41:26;101483.36;;;4.15;83.80
43681;BME280;29281;50.356;30.894;2022-10-16T04:42:29;101476.28;;;4.19;84.10
43681;BME280;29281;50.356;30.894;2022-10-16T04:43:32;101478.05;;;4.18;83.94
43681;BME280;29281;50.356;30.894;2022-10-16T04:44:37;101477.96;;;4.23;84.07
43681;BME280;29281;50.356;30.894;2022-10-16T04:45:40;101493.55;;;4.31;83.96
43681;BME280;29281;50.356;30.894;2022-10-16T04:46:44;101490.92;;;4.31;83.63
43681;BME280;29281;50.356;30.894;2022-10-16T04:47:49;101485.64;;;4.32;83.62
43681;BME280;29281;50.356;30.894;2022-10-16T04:48:52;101490.95;;;4.29;83.37
43681;BME280;29281;50.356;30.894;2022-10-16T04:49:55;101491.67;;;4.37;83.60
43681;BME280;29281;50.356;30.894;2022-10-16T04:51:01;101497.74;;;4.41;83.47
43681;BME280;29281;50.356;30.894;2022-10-16T04:52:04;101487.22;;;4.41;83.27
43681;BME280;29281;50.356;30.894;2022-10-16T04:53:08;101498.39;;;4.50;83.05
43681;BME280;29281;50.356;30.894;2022-10-16T04:54:11;101499.29;;;4.49;82.83
43681;BME280;29281;50.356;30.894;2022-10-16T04:55:15;101502.78;;;4.50;82.72
43681;BME280;29281;50.356;30.894;2022-10-16T04:56:19;101495.67;;;4.55;82.61
43681;BME280;29281;50.356;30.894;2022-10-16T04:57:25;101507.12;;;4.52;82.42
43681;BME280;29281;50.356;30.894;2022-10-16T04:58:31;101506.80;;;4.66;82.25
43681;BME280;29281;50.356;30.894;2022-10-16T04:59:37;101507.64;;;4.68;81.69
43681;BME280;29281;50.356;30.894;2022-10-16T05:00:40;101512.74;;;4.74;81.33
43681;BME280;29281;50.356;30.894;2022-10-16T05:01:44;101514.61;;;4.71;81.37
43681;BME280;29281;50.356;30.894;2022-10-16T05:02:46;101516.75;;;4.90;80.74
43681;BME280;29281;50.356;30.894;2022-10-16T05:03:50;101518.34;;;4.98;80.27
43681;BME280;29281;50.356;30.894;2022-10-16T05:04:54;101518.08;;;5.08;79.42
43681;BME280;29281;50.356;30.894;2022-10-16T05:06:04;101517.98;;;5.13;79.01
43681;BME280;29281;50.356;30.894;2022-10-16T05:07:05;101521.55;;;5.10;79.53
43681;BME280;29281;50.356;30.894;2022-10-16T05:08:08;101523.48;;;5.04;79.80
43681;BME280;29281;50.356;30.894;2022-10-16T05:09:12;101529.52;;;5.07;79.75
43681;BME280;29281;50.356;30.894;2022-10-16T05:10:16;101526.95;;;5.04;79.79
43681;BME280;29281;50.356;30.894;2022-10-16T05:11:19;101532.31;;;5.01;80.12
43681;BME280;29281;50.356;30.894;2022-10-16T05:12:22;101530.55;;;5.02;79.84
43681;BME280;29281;50.356;30.894;2022-10-16T05:13:27;101530.45;;;5.05;80.18
43681;BME280;29281;50.356;30.894;2022-10-16T05:14:31;101534.95;;;5.01;80.70
43681;BME280;29281;50.356;30.894;2022-10-16T05:15:34;101532.14;;;5.07;80.47
43681;BME280;29281;50.356;30.894;2022-10-16T05:16:37;101535.72;;;5.05;80.32
43681;BME280;29281;50.356;30.894;2022-10-16T05:17:39;101536.55;;;5.07;80.25
43681;BME280;29281;50.356;30.894;2022-10-16T05:18:45;101541.55;;;5.19;79.77
43681;BME280;29281;50.356;30.894;2022-10-16T05:19:52;101541.44;;;5.22;80.44
43681;BME280;29281;50.356;30.894;2022-10-16T05:20:55;101547.37;;;5.32;79.67
43681;BME280;29281;50.356;30.894;2022-10-16T05:21:58;101541.96;;;5.36;79.09
43681;BME280;29281;50.356;30.894;2022-10-16T05:23:01;101537.70;;;5.32;80.14
43681;BME280;29281;50.356;30.894;2022-10-16T05:24:05;101534.89;;;5.38;80.00
43681;BME280;29281;50.356;30.894;2022-10-16T05:25:08;101541.78;;;5.44;79.75
43681;BME280;29281;50.356;30.894;2022-10-16T05:26:12;101541.46;;;5.56;78.96
43681;BME280;29281;50.356;30.894;2022-10-16T05:27:15;101550.73;;;5.71;78.08
43681;BME280;29281;50.356;30.894;2022-10-16T05:28:20;101550.52;;;5.80;77.80
43681;BME280;29281;50.356;30.894;2022-10-16T05:29:24;101545.77;;;5.94;77.46
43681;BME280;29281;50.356;30.894;2022-10-16T05:30:28;101547.31;;;6.01;76.51
43681;BME280;29281;50.356;30.894;2022-10-16T05:31:31;101554.95;;;5.78;76.67
43681;BME280;29281;50.356;30.894;2022-10-16T05:32:35;101557.86;;;5.67;77.37
43681;BME280;29281;50.356;30.894;2022-10-16T05:33:40;101556.09;;;5.68;77.30
43681;BME280;29281;50.356;30.894;2022-10-16T05:34:43;101561.55;;;5.95;77.00
43681;BME280;29281;50.356;30.894;2022-10-16T05:35:49;101567.34;;;6.08;76.14
43681;BME280;29281;50.356;30.894;2022-10-16T05:36:52;101565.89;;;6.27;75.50
43681;BME280;29281;50.356;30.894;2022-10-16T05:38:02;101566.05;;;6.23;75.49
43681;BME280;29281;50.356;30.894;2022-10-16T05:39:05;101569.44;;;6.26;75.64
43681;BME280;29281;50.356;30.894;2022-10-16T05:40:09;101564.31;;;6.22;76.03
43681;BME280;29281;50.356;30.894;2022-10-16T05:41:15;101569.67;;;6.19;76.20
43681;BME280;29281;50.356;30.894;2022-10-16T05:42:22;101563.17;;;6.30;76.20
43681;BME280;29281;50.356;30.894;2022-10-16T05:43:26;101566.59;;;6.34;76.80
43681;BME280;29281;50.356;30.894;2022-10-16T05:44:30;101569.16;;;6.37;76.79